Flight Track Log - Related Links

Times and Time Zones

All times are in EDT time to prevent confusion due to time zone crossing. See the DAL3799 flight status page for this flight to view local times or setup timezone preferences in your user account.

Time Position Orientation Groundspeed Altitude Reporting Facility
EDT Latitude Longitude Course Direction KTS km/h feet Rate Location/Type
Fri 22:29:19 42.2100 -83.3531 16° North 143 266 1.300  Level Cleveland Center
Fri 22:29:52 42.1892 -83.3458 166° South 180 333 2.400 2.444 Climbing FAA TRACON SMA TRACON (SMA)
Fri 22:30:13 42.1689 -83.3406 169° South 197 365 3.500 3.150 Climbing FAA TRACON SMA TRACON (SMA)
Fri 22:30:32 42.1481 -83.3339 167° South 217 402 4.500 2.250 Climbing FAA TRACON SMA TRACON (SMA)
Fri 22:30:53 42.1272 -83.3261 165° South 255 472 5.000 2.195 Climbing FAA TRACON SMA TRACON (SMA)
Fri 22:31:13 42.1108 -83.3022 133° Southeast 295 546 6.000 3.077 Climbing FAA TRACON SMA TRACON (SMA)
Fri 22:31:32 42.1064 -83.2686 100° East 305 565 7.000 3.300 Climbing FAA TRACON SMA TRACON (SMA)
Fri 22:31:53 42.1144 -83.2267 75° East 305 565 8.200 3.000 Climbing FAA TRACON SMA TRACON (SMA)
Fri 22:32:12 42.1317 -83.2008 48° Northeast 307 568 9.000 2.850 Climbing FAA TRACON SMA TRACON (SMA)
Fri 22:32:33 42.1622 -83.1900 15° North 297 550 10.100 2.780 Climbing FAA TRACON SMA TRACON (SMA)
Fri 22:32:53 42.1872 -83.1894 North 298 552 10.900 1.538 Climbing FAA TRACON SMA TRACON (SMA)
Fri 22:33:12 42.2139 -83.1886 North 327 605 11.100 600 Climbing FAA TRACON SMA TRACON (SMA)
Fri 22:33:33 42.2506 -83.1861 North 360 666 11.300 1.200 Climbing FAA TRACON SMA TRACON (SMA)
Fri 22:33:52 42.2811 -83.1842 North 358 663 11.900 1.650 Climbing FAA TRACON SMA TRACON (SMA)
Fri 22:34:00 42.8493 -83.1336 16° North  Level FlightAware Approximate
Fri 22:34:13 42.3122 -83.1817 North 368 681 12.400  Level FAA TRACON SMA TRACON (SMA)
Fri 22:34:33 42.3525 -83.1789 North 377 698 13.000 1.692 Climbing FAA TRACON SMA TRACON (SMA)
Fri 22:34:52 42.3856 -83.1761 North 387 716 13.500 1.650 Climbing FAA TRACON SMA TRACON (SMA)
Fri 22:35:13 42.4186 -83.1739 North 387 716 14.100 1.800 Climbing FAA TRACON SMA TRACON (SMA)
Fri 22:35:32 42.4608 -83.1700 North 393 727 14.700 1.800 Climbing FAA TRACON SMA TRACON (SMA)
Fri 22:35:53 42.4936 -83.1567 17° North 400 740 15.300 1.610 Climbing FAA TRACON SMA TRACON (SMA)
Fri 22:36:13 42.5256 -83.1356 26° Northeast 416 771 15.800 1.846 Climbing FAA TRACON SMA TRACON (SMA)
Fri 22:36:32 42.5650 -83.1089 26° Northeast 415 769 16.500 1.800 Climbing FAA TRACON SMA TRACON (SMA)
Fri 22:36:53 42.5972 -83.0867 27° Northeast 418 774 17.000 1.350 Climbing FAA TRACON SMA TRACON (SMA)
Fri 22:37:12 42.6292 -83.0647 27° Northeast 419 776 17.400 1.800 Climbing FAA TRACON SMA TRACON (SMA)
Fri 22:37:33 42.6697 -83.0347 29° Northeast 429 795 18.200 1.950 Climbing FAA TRACON SMA TRACON (SMA)
Fri 22:37:52 42.7022 -83.0114 28° Northeast 429 795 18.700 1.350 Climbing FAA TRACON SMA TRACON (SMA)
Fri 22:38:13 42.7339 -82.9889 28° Northeast 433 801 19.100 1.463 Climbing FAA TRACON SMA TRACON (SMA)
Fri 22:38:33 42.7769 -82.9583 28° Northeast 436 808 19.700 1.385 Climbing FAA TRACON SMA TRACON (SMA)
Fri 22:38:52 42.8100 -82.9336 29° Northeast 442 819 20.000 1.050 Climbing FAA TRACON SMA TRACON (SMA)
Fri 22:39:13 42.8342 -82.8964 48° Northeast 449 832 20.400 1.350 Climbing FAA TRACON SMA TRACON (SMA)
Fri 22:39:32 42.8522 -82.8331 69° East 440 814 20.900 1.200 Climbing FAA TRACON SMA TRACON (SMA)
Fri 22:39:53 42.8647 -82.7836 71° East 445 824 21.200 732 Climbing FAA TRACON SMA TRACON (SMA)
Fri 22:40:13 42.8778 -82.7386 68° East 446 826 21.400 769 Climbing FAA TRACON SMA TRACON (SMA)
Fri 22:40:32 42.8947 -82.6719 71° East 453 838 21.700 750 Climbing FAA TRACON SMA TRACON (SMA)
Fri 22:40:53 42.9081 -82.6208 70° East 459 850 21.900 735 Climbing FAA TRACON SMA TRACON (SMA)
Fri 22:41:21 42.9250 -82.5394 74° East 432 800 22.300 783 Climbing Cleveland Center
Fri 22:41:39 42.9333 -82.4833 79° East 470 871 22.500 846 Climbing Toronto Center
Fri 22:42:39 42.9667 -82.3000 76° East 480 888 23.400 850 Climbing Toronto Center
Fri 22:43:39 43.0000 -82.1333 75° East 480 888 24.200 800 Climbing Toronto Center
Fri 22:44:39 43.0167 -81.9333 83° East 480 888 25.000 400 Climbing Toronto Center
Fri 22:45:39 43.0667 -81.7500 69° East 490 908 25.000  Level Toronto Center
Fri 22:46:39 43.1000 -81.6000 73° East 520 962 25.000  Level Toronto Center
Fri 22:47:39 43.1667 -81.4000 65° Northeast 530 982 25.000  Level Toronto Center
Fri 22:48:39 43.2167 -81.1833 72° East 540 999 25.000  Level Toronto Center
Fri 22:49:39 43.2667 -81.0000 69° East 550 1019 25.000  Level Toronto Center
Fri 22:50:39 43.3333 -80.8000 65° Northeast 550 1019 25.000  Level Toronto Center
Fri 22:51:39 43.4000 -80.6167 63° Northeast 550 1019 25.000  Level Toronto Center
Fri 22:52:39 43.4500 -80.4167 71° East 560 1036 25.000  Level Toronto Center
Fri 22:53:39 43.5000 -80.2000 72° East 560 1036 25.000  Level Toronto Center
Fri 22:54:39 43.5667 -80.0000 65° Northeast 560 1036 25.000  Level Toronto Center
Fri 22:55:39 43.6167 -79.8167 69° East 570 1056 25.000  Level Toronto Center
Fri 22:56:39 43.6667 -79.6167 71° East 560 1036 25.000  Level Toronto Center
Fri 22:57:39 43.7333 -79.4000 67° East 560 1036 25.000  Level Toronto Center
Fri 22:58:39 43.7833 -79.2000 71° East 570 1056 25.000  Level Toronto Center
Fri 22:59:39 43.8333 -79.0167 69° East 560 1036 25.000  Level Toronto Center
Fri 23:00:39 43.9000 -78.8000 67° East 560 1036 25.000  Level Toronto Center
Fri 23:01:39 43.9500 -78.5833 72° East 560 1036 25.000  Level Toronto Center
Fri 23:02:39 44.0000 -78.3833 71° East 560 1036 25.000  Level Toronto Center
Fri 23:03:39 44.0667 -78.2000 63° Northeast 580 1073 25.000  Level Toronto Center
Fri 23:04:39 44.1333 -78.0000 65° Northeast 580 1073 25.000  Level Toronto Center
Fri 23:05:39 44.2333 -77.8000 55° Northeast 590 1093 25.000  Level Toronto Center
Fri 23:06:39 44.3333 -77.6000 55° Northeast 590 1093 25.000  Level Toronto Center
Fri 23:07:39 44.4167 -77.4167 57° Northeast 580 1073 25.000  Level Toronto Center
Fri 23:08:39 44.5000 -77.2167 60° Northeast 580 1073 25.000 -450 Level Toronto Center
Fri 23:09:39 44.5833 -77.0333 57° Northeast 580 1073 24.100 -1.500 Descending Toronto Center
Fri 23:10:39 44.6667 -76.8667 55° Northeast 570 1056 22.000 -2.200 Descending Toronto Center
Fri 23:11:39 44.7667 -76.6667 55° Northeast 560 1036 19.700 -2.350 Descending Toronto Center
Fri 23:12:39 44.8500 -76.5333 49° Northeast 530 982 17.300 -2.300 Descending Toronto Center
Fri 23:13:39 44.9333 -76.3500 57° Northeast 500 925 15.100 -2.050 Descending Toronto Center
Fri 23:14:39 45.0000 -76.1833 60° Northeast 480 888 13.200 -1.750 Descending Toronto Center
Fri 23:15:39 45.0333 -76.0167 74° East 440 814 11.600 -1.450 Descending Toronto Center
Fri 23:16:39 45.0667 -75.9000 68° East 380 703 10.300 -1.500 Descending Toronto Center
Fri 23:17:39 45.0833 -75.7833 79° East 330 612 8.600 -2.050 Descending Toronto Center
Fri 23:18:39 45.1000 -75.6333 81° East 310 575 6.200 -2.300 Descending Toronto Center
Fri 23:19:39 45.1167 -75.5500 74° East 280 518 4.000 -1.850 Descending Toronto Center
Fri 23:20:39 45.1667 -75.4667 50° Northeast 280 518 2.500 -1.500 Descending Toronto Center

Login

Don't have an account? Register now (free) for customized features, flight alerts, and more!